Time;durP1;ratioP1;P1;durP2;ratioP2;P2;SDS_P1;SDS_P2;PMS_P1;PMS_P2;Temp;Humidity;BMP_temperature;BMP_pressure;BME280_temperature;BME280_humidity;BME280_pressure;Samples;Min_cycle;Max_cycle;Signal;HPM_P1;HPM_P2
2024/03/07 00:03:00;;;;;;;41.10;28.00;;;;;;;5.49;100.00;101055.36;182508;1238;46638;-89
2024/03/07 00:07:03;;;;;;;38.20;27.60;;;;;;;5.44;100.00;101058.25;182748;1235;59449;-88
2024/03/07 00:11:07;;;;;;;37.60;27.50;;;;;;;5.39;100.00;101056.55;182724;1236;45923;-89
2024/03/07 00:15:11;;;;;;;45.60;25.10;;;;;;;5.37;100.00;101055.02;182652;1236;46076;-88
2024/03/07 00:19:14;;;;;;;37.80;25.50;;;;;;;5.29;100.00;101055.05;183029;1239;44554;-89
2024/03/07 00:23:17;;;;;;;39.20;27.00;;;;;;;5.21;100.00;101056.69;182932;1235;46191;-89
2024/03/07 00:27:20;;;;;;;39.00;26.20;;;;;;;5.13;100.00;101056.34;182608;1239;60467;-88
2024/03/07 00:31:22;;;;;;;38.00;24.30;;;;;;;5.08;100.00;101054.98;182390;1235;45987;-86
2024/03/07 00:35:25;;;;;;;42.60;23.20;;;;;;;5.02;100.00;101054.21;182872;1235;45874;-87
2024/03/07 00:39:27;;;;;;;44.70;25.90;;;;;;;4.97;100.00;101051.59;182669;1239;45977;-89
2024/03/07 00:43:30;;;;;;;42.30;25.10;;;;;;;4.93;100.00;101050.58;183269;1239;44182;-87
2024/03/07 00:47:33;;;;;;;40.00;26.70;;;;;;;4.89;100.00;101053.40;182741;1235;59408;-88
2024/03/07 00:51:36;;;;;;;38.40;23.20;;;;;;;4.83;100.00;101049.44;182359;1235;46145;-87
2024/03/07 00:55:40;;;;;;;41.40;30.40;;;;;;;4.80;100.00;101051.70;183217;1238;45938;-87
2024/03/07 00:59:43;;;;;;;34.70;23.30;;;;;;;4.78;100.00;101049.83;182651;1239;46444;-87
2024/03/07 01:03:45;;;;;;;42.80;26.60;;;;;;;4.79;100.00;101047.54;182697;1235;45945;-87
2024/03/07 01:07:47;;;;;;;36.20;21.80;;;;;;;4.79;100.00;101050.34;183436;1236;59524;-87
2024/03/07 01:11:50;;;;;;;34.50;24.00;;;;;;;4.77;100.00;101048.14;182053;1235;45995;-87
2024/03/07 01:15:52;;;;;;;36.10;23.00;;;;;;;4.78;100.00;101051.77;182303;1235;45989;-88
2024/03/07 01:19:54;;;;;;;35.10;24.20;;;;;;;4.76;100.00;101050.98;182323;1237;46013;-88
2024/03/07 01:23:56;;;;;;;36.40;24.40;;;;;;;4.73;100.00;101049.38;182455;1234;45968;-89
2024/03/07 01:27:58;;;;;;;39.20;23.80;;;;;;;4.70;100.00;101050.02;182257;1239;58330;-88
2024/03/07 01:32:02;;;;;;;34.20;23.10;;;;;;;4.67;100.00;101049.98;182309;1237;46035;-88
2024/03/07 01:36:05;;;;;;;32.30;23.50;;;;;;;4.65;100.00;101050.95;182272;1239;46127;-88
2024/03/07 01:40:08;;;;;;;41.20;22.70;;;;;;;4.64;100.00;101053.63;182301;1235;46077;-87
2024/03/07 01:44:10;;;;;;;30.10;21.40;;;;;;;4.63;100.00;101052.61;182468;1239;46138;-88
2024/03/07 01:48:19;;;;;;;32.30;21.30;;;;;;;4.64;100.00;101051.90;182244;1235;58527;-89
2024/03/07 01:52:22;;;;;;;34.50;22.70;;;;;;;4.64;100.00;101050.13;182532;1235;46077;-88
2024/03/07 01:56:24;;;;;;;34.50;22.40;;;;;;;4.63;100.00;101050.17;182577;1235;46225;-89
2024/03/07 02:00:26;;;;;;;39.60;23.90;;;;;;;4.64;100.00;101055.22;182452;1235;46023;-89
2024/03/07 02:04:29;;;;;;;33.80;23.90;;;;;;;4.64;100.00;101052.07;182337;1235;45979;-88
2024/03/07 02:08:31;;;;;;;30.30;21.50;;;;;;;4.61;100.00;101048.33;182641;1237;58130;-86
2024/03/07 02:12:33;;;;;;;35.80;21.00;;;;;;;4.58;100.00;101047.41;182402;1239;46102;-87
2024/03/07 02:16:36;;;;;;;34.70;24.90;;;;;;;4.55;100.00;101044.70;182634;1236;46012;-87
2024/03/07 02:20:37;;;;;;;37.70;21.80;;;;;;;4.52;100.00;101049.41;182181;1235;46192;-89
2024/03/07 02:24:40;;;;;;;42.40;28.40;;;;;;;4.53;100.00;101049.73;182805;1235;46180;-87
2024/03/07 02:28:42;;;;;;;32.20;20.90;;;;;;;4.51;100.00;101047.67;182619;1235;57904;-88
2024/03/07 02:32:51;;;;;;;36.40;21.90;;;;;;;4.48;100.00;101052.21;182856;1239;46009;-87
2024/03/07 02:36:54;;;;;;;40.50;23.30;;;;;;;4.42;100.00;101046.16;182311;1236;44079;-88
2024/03/07 02:40:58;;;;;;;37.90;21.80;;;;;;;4.42;100.00;101049.33;182221;1235;47060;-87
2024/03/07 02:45:00;;;;;;;34.10;22.60;;;;;;;4.41;100.00;101051.27;183210;1237;46093;-88
2024/03/07 02:49:02;;;;;;;30.40;21.90;;;;;;;4.39;100.00;101047.88;182387;1238;59065;-87
2024/03/07 02:53:04;;;;;;;33.60;22.80;;;;;;;4.36;100.00;101049.40;182346;1239;46072;-88
2024/03/07 02:57:06;;;;;;;32.30;20.50;;;;;;;4.29;100.00;101044.42;182755;1235;46219;-89
2024/03/07 03:01:09;;;;;;;34.50;23.10;;;;;;;4.27;100.00;101041.88;182847;1239;46168;-89
2024/03/07 03:05:11;;;;;;;35.10;22.90;;;;;;;4.22;100.00;101043.67;182532;1239;46094;-90
2024/03/07 03:09:17;;;;;;;36.90;21.20;;;;;;;4.19;100.00;101046.09;182780;1235;60225;-89
2024/03/07 03:13:19;;;;;;;32.00;20.00;;;;;;;4.14;100.00;101046.31;182293;1239;45133;-88
2024/03/07 03:17:21;;;;;;;32.50;20.70;;;;;;;4.10;100.00;101049.27;182583;1235;45941;-88
2024/03/07 03:21:23;;;;;;;33.60;22.50;;;;;;;4.06;100.00;101046.61;182112;1237;46042;-88
2024/03/07 03:25:26;;;;;;;30.70;21.00;;;;;;;4.02;100.00;101048.73;182223;1237;44630;-89
2024/03/07 03:29:28;;;;;;;32.70;22.20;;;;;;;4.00;100.00;101046.69;182226;1235;60377;-89
2024/03/07 03:33:30;;;;;;;32.70;21.70;;;;;;;3.98;100.00;101047.33;182456;1237;46127;-89
2024/03/07 03:37:32;;;;;;;34.90;23.90;;;;;;;3.94;100.00;101045.92;182259;1235;46008;-88
2024/03/07 03:41:35;;;;;;;33.80;21.00;;;;;;;3.92;100.00;101045.81;182545;1235;46020;-88
2024/03/07 03:45:37;;;;;;;28.50;20.10;;;;;;;3.93;100.00;101041.21;182461;1240;46093;-88
2024/03/07 03:49:39;;;;;;;35.70;23.10;;;;;;;3.91;100.00;101043.41;182126;1240;59347;-86
2024/03/07 03:53:41;;;;;;;38.40;21.30;;;;;;;3.88;100.00;101041.06;182378;1239;45947;-86
2024/03/07 03:57:46;;;;;;;37.70;24.20;;;;;;;3.86;100.00;101038.16;182799;1235;45996;-88
2024/03/07 04:01:48;;;;;;;40.40;23.00;;;;;;;3.84;100.00;101042.28;182985;1235;46000;-89
2024/03/07 04:05:51;;;;;;;37.20;22.50;;;;;;;3.82;100.00;101049.21;183127;1240;45983;-89
2024/03/07 04:09:53;;;;;;;29.60;20.00;;;;;;;3.82;100.00;101043.23;183381;1240;58012;-89
2024/03/07 04:18:32;;;;;;;40.20;21.40;;;;;;;3.84;100.00;101046.82;184702;1236;46017;-88
2024/03/07 04:22:34;;;;;;;32.30;22.00;;;;;;;3.84;100.00;101049.13;184303;1238;45351;-90
2024/03/07 04:26:36;;;;;;;28.80;21.80;;;;;;;3.84;100.00;101046.31;184439;1240;44928;-90
2024/03/07 04:30:41;;;;;;;36.50;22.10;;;;;;;3.83;100.00;101050.57;184591;1238;59322;-89
2024/03/07 04:34:44;;;;;;;32.00;23.10;;;;;;;3.80;100.00;101052.60;184676;1236;46093;-87
2024/03/07 04:38:46;;;;;;;40.30;22.10;;;;;;;3.78;100.00;101057.43;184445;1240;45921;-89
2024/03/07 04:42:49;;;;;;;35.70;24.20;;;;;;;3.76;100.00;101058.24;184171;1237;45880;-89
2024/03/07 04:46:55;;;;;;;38.70;22.60;;;;;;;3.77;100.00;101061.15;184369;1236;46615;-87
2024/03/07 04:50:58;;;;;;;32.10;19.00;;;;;;;3.79;100.00;101060.58;183833;1240;58021;-88
2024/03/07 04:55:01;;;;;;;33.60;23.40;;;;;;;3.78;100.00;101064.66;184022;1238;45839;-89
2024/03/07 04:59:04;;;;;;;37.60;22.90;;;;;;;3.79;100.00;101063.02;183815;1237;45876;-87
2024/03/07 05:03:06;;;;;;;34.60;24.30;;;;;;;3.80;100.00;101064.39;184892;1240;46012;-89
2024/03/07 05:07:08;;;;;;;38.90;23.70;;;;;;;3.80;100.00;101066.31;184954;1238;46278;-88
2024/03/07 05:11:10;;;;;;;36.10;24.50;;;;;;;3.80;100.00;101066.13;184604;1238;59884;-87
2024/03/07 05:15:12;;;;;;;34.00;23.90;;;;;;;3.80;100.00;101073.13;184266;1240;45883;-85
2024/03/07 05:19:14;;;;;;;32.80;22.70;;;;;;;3.79;100.00;101076.55;184552;1237;45291;-87
2024/03/07 05:23:16;;;;;;;41.40;25.10;;;;;;;3.78;100.00;101082.17;184118;1236;44462;-90
2024/03/07 05:27:20;;;;;;;36.90;24.00;;;;;;;3.80;100.00;101084.20;184489;1236;44855;-87
2024/03/07 05:31:23;;;;;;;36.50;24.30;;;;;;;3.81;100.00;101086.44;183970;1237;59463;-89
2024/03/07 05:35:25;;;;;;;36.50;24.10;;;;;;;3.82;100.00;101085.86;184738;1240;45880;-85
2024/03/07 05:39:27;;;;;;;35.00;23.20;;;;;;;3.84;100.00;101083.35;184419;1237;45858;-90
2024/03/07 05:43:29;;;;;;;43.00;24.10;;;;;;;3.84;100.00;101085.42;183464;1238;45932;-90
2024/03/07 05:47:31;;;;;;;43.80;28.10;;;;;;;3.86;100.00;101089.55;184118;1238;45303;-88
2024/03/07 05:51:33;;;;;;;48.20;26.60;;;;;;;3.90;100.00;101091.35;183724;1237;57916;-87
2024/03/07 05:55:35;;;;;;;41.50;24.70;;;;;;;3.91;100.00;101095.87;184208;1240;46172;-89
2024/03/07 05:59:37;;;;;;;36.00;26.00;;;;;;;3.94;100.00;101096.63;184001;1238;46028;-87
2024/03/07 06:03:39;;;;;;;41.10;26.90;;;;;;;3.96;100.00;101100.96;183640;1239;44119;-89
2024/03/07 06:07:41;;;;;;;39.00;26.10;;;;;;;3.96;100.00;101102.15;183693;1238;45472;-87
2024/03/07 06:11:43;;;;;;;42.30;25.60;;;;;;;4.02;100.00;101105.97;183704;1240;58069;-87
2024/03/07 06:15:47;;;;;;;37.90;25.50;;;;;;;4.06;100.00;101106.83;183860;1240;45970;-87
2024/03/07 06:19:49;;;;;;;37.60;27.00;;;;;;;4.07;100.00;101111.36;183804;1238;46003;-86
2024/03/07 06:23:59;;;;;;;41.80;27.80;;;;;;;4.07;100.00;101114.00;183998;1236;46046;-90
2024/03/07 06:28:08;;;;;;;38.80;26.10;;;;;;;4.11;100.00;101116.79;183651;1237;45873;-90
2024/03/07 06:32:11;;;;;;;39.10;26.80;;;;;;;4.14;100.00;101118.98;183605;1237;58131;-90
2024/03/07 06:36:13;;;;;;;43.20;26.70;;;;;;;4.17;100.00;101124.31;183610;1239;45256;-90
2024/03/07 06:40:21;;;;;;;42.20;26.20;;;;;;;4.19;100.00;101124.92;183871;1239;46044;-89
2024/03/07 06:44:23;;;;;;;35.60;25.60;;;;;;;4.21;100.00;101127.48;183940;1237;45009;-89
2024/03/07 06:48:24;;;;;;;51.40;28.70;;;;;;;4.22;100.00;101133.59;183982;1240;46111;-86
2024/03/07 06:52:26;;;;;;;52.00;29.50;;;;;;;4.25;100.00;101135.04;184032;1240;59433;-90
2024/03/07 06:56:28;;;;;;;37.70;24.80;;;;;;;4.33;100.00;101141.38;183715;1240;46017;-91
2024/03/07 07:00:31;;;;;;;42.80;27.50;;;;;;;4.38;100.00;101137.64;183605;1238;46197;-87
2024/03/07 07:04:41;;;;;;;39.00;27.20;;;;;;;4.45;100.00;101141.05;183389;1241;46071;-89
2024/03/07 07:08:44;;;;;;;35.10;23.40;;;;;;;4.51;100.00;101147.49;184182;1236;46109;-91
2024/03/07 07:12:51;;;;;;;41.30;27.00;;;;;;;4.55;100.00;101147.31;183725;1238;58325;-89
2024/03/07 07:16:53;;;;;;;47.30;27.90;;;;;;;4.60;100.00;101151.33;183688;1237;45871;-89
2024/03/07 07:20:56;;;;;;;39.30;25.00;;;;;;;4.64;99.73;101151.50;183714;1238;46137;-85
2024/03/07 07:24:58;;;;;;;34.80;20.80;;;;;;;4.66;99.29;101155.60;183508;1241;45965;-89
2024/03/07 07:29:00;;;;;;;41.10;29.10;;;;;;;4.59;95.50;101153.47;183499;1236;46092;-90
2024/03/07 07:33:04;;;;;;;41.30;28.90;;;;;;;4.64;97.20;101157.11;183722;1236;59478;-90
2024/03/07 07:37:06;;;;;;;39.40;24.20;;;;;;;4.67;97.41;101158.02;183305;1237;44649;-90
2024/03/07 07:41:08;;;;;;;38.00;23.10;;;;;;;4.64;95.18;101160.79;183362;1238;45897;-90
2024/03/07 07:45:13;;;;;;;33.50;22.70;;;;;;;4.66;94.61;101160.38;183425;1237;44820;-90
2024/03/07 07:49:15;;;;;;;43.40;23.70;;;;;;;4.72;95.22;101162.02;183731;1239;45246;-87
2024/03/07 07:53:18;;;;;;;41.70;23.40;;;;;;;4.81;95.28;101164.31;183466;1237;57987;-87
2024/03/07 07:57:21;;;;;;;41.00;25.50;;;;;;;4.89;95.10;101166.05;183317;1236;45980;-90
2024/03/07 08:01:23;;;;;;;33.90;23.50;;;;;;;4.96;93.93;101162.92;183380;1237;44087;-89
2024/03/07 08:05:29;;;;;;;36.40;24.40;;;;;;;5.06;93.70;101161.30;183068;1237;46134;-88
2024/03/07 08:09:31;;;;;;;;;;;;;;;5.10;91.43;101156.70;183399;1237;45952;-89
2024/03/07 08:13:33;;;;;;;44.00;25.80;;;;;;;5.17;91.79;101158.70;183265;1240;59007;-89
2024/03/07 08:17:35;;;;;;;34.10;22.80;;;;;;;5.27;91.49;101162.96;183292;1237;45777;-89
2024/03/07 08:21:37;;;;;;;34.90;23.50;;;;;;;5.36;91.14;101162.76;183233;1240;46078;-88
2024/03/07 08:25:42;;;;;;;34.10;23.50;;;;;;;5.39;88.76;101161.21;183422;1237;45361;-88
2024/03/07 08:29:44;;;;;;;32.80;24.10;;;;;;;5.49;89.30;101160.56;183354;1240;45584;-85
2024/03/07 08:33:46;;;;;;;31.30;20.50;;;;;;;5.59;86.17;101159.78;183260;1240;57900;-89
2024/03/07 08:37:52;;;;;;;38.10;24.10;;;;;;;5.70;85.12;101160.98;183527;1238;45958;-90
2024/03/07 08:41:54;;;;;;;32.90;20.30;;;;;;;5.78;82.84;101160.27;183215;1237;46187;-91
2024/03/07 08:45:57;;;;;;;31.70;22.80;;;;;;;5.91;83.37;101162.13;183485;1238;45426;-90
2024/03/07 08:50:00;;;;;;;28.50;20.50;;;;;;;6.08;83.36;101159.55;182794;1240;45951;-90
2024/03/07 08:54:02;;;;;;;29.80;20.90;;;;;;;6.27;82.36;101159.18;183338;1240;59325;-88
2024/03/07 08:58:08;;;;;;;34.70;22.30;;;;;;;6.35;78.21;101159.32;182830;1238;44955;-87
2024/03/07 09:02:16;;;;;;;28.50;21.10;;;;;;;6.32;76.27;101159.47;183119;1240;44083;-90
2024/03/07 09:06:18;;;;;;;30.60;22.70;;;;;;;6.25;75.89;101157.87;182821;1240;46093;-89
2024/03/07 09:10:20;;;;;;;31.20;23.50;;;;;;;6.11;75.77;101160.29;182965;1241;44243;-87
2024/03/07 09:14:22;;;;;;;36.20;22.00;;;;;;;5.96;76.41;101159.77;183384;1238;58171;-89
2024/03/07 09:18:24;;;;;;;32.20;23.90;;;;;;;5.78;76.72;101158.85;182742;1240;46625;-86
2024/03/07 09:22:29;;;;;;;31.70;24.60;;;;;;;5.73;78.62;101158.73;182889;1237;46076;-86
2024/03/07 09:26:31;;;;;;;30.10;24.60;;;;;;;5.60;78.91;101153.54;183396;1238;45961;-90
2024/03/07 09:30:34;;;;;;;33.40;22.70;;;;;;;5.48;79.89;101153.23;182910;1240;46408;-90
2024/03/07 09:34:37;;;;;;;39.00;23.20;;;;;;;5.38;80.81;101156.49;182704;1237;60380;-88
2024/03/07 09:38:39;;;;;;;37.80;25.90;;;;;;;5.37;81.50;101155.84;183052;1238;44689;-88
2024/03/07 09:42:51;;;;;;;30.00;21.70;;;;;;;5.38;81.55;101157.58;182993;1238;46109;-89
2024/03/07 09:46:55;;;;;;;33.00;22.30;;;;;;;5.40;79.67;101159.39;183316;1238;46069;-90
2024/03/07 09:50:59;;;;;;;40.20;24.20;;;;;;;5.41;78.87;101157.07;183021;1238;46123;-89
2024/03/07 09:55:02;;;;;;;31.60;22.70;;;;;;;5.41;79.93;101160.05;182937;1238;58423;-88
2024/03/07 09:59:08;;;;;;;30.90;21.50;;;;;;;5.40;79.93;101159.38;183275;1237;45970;-89
2024/03/07 10:03:15;;;;;;;33.10;22.40;;;;;;;5.44;80.45;101159.02;183210;1238;45979;-90
2024/03/07 10:07:18;;;;;;;35.50;22.70;;;;;;;5.46;80.59;101154.90;183694;1239;45012;-88
2024/03/07 10:11:20;;;;;;;29.70;23.90;;;;;;;5.52;78.52;101158.50;182989;1238;45977;-90
2024/03/07 10:15:31;;;;;;;34.70;27.20;;;;;;;5.52;77.22;101157.98;182872;1238;58167;-89
2024/03/07 10:19:34;;;;;;;36.70;25.00;;;;;;;5.58;77.23;101161.40;182912;1237;46013;-88
2024/03/07 10:23:36;;;;;;;51.70;27.60;;;;;;;5.63;76.50;101164.30;182997;1238;46204;-87
2024/03/07 10:27:42;;;;;;;38.10;28.70;;;;;;;5.72;76.46;101162.67;182747;1238;44748;-89
2024/03/07 10:31:45;;;;;;;38.30;23.90;;;;;;;5.75;76.88;101162.35;182810;1241;46018;-88
2024/03/07 10:36:02;;;;;;;35.50;24.90;;;;;;;5.78;76.99;101162.03;183053;1240;59891;-89
2024/03/07 10:40:15;;;;;;;35.20;25.90;;;;;;;5.79;76.28;101164.82;182610;1237;44036;-87
2024/03/07 10:44:28;;;;;;;37.20;24.90;;;;;;;5.80;76.00;101163.91;182990;1241;44489;-89
2024/03/07 10:48:39;;;;;;;38.90;26.80;;;;;;;5.86;77.28;101167.78;183059;1237;44657;-90
2024/03/07 10:53:06;;;;;;;36.10;24.90;;;;;;;5.93;78.37;101165.92;183054;1240;46418;-89
2024/03/07 10:57:23;;;;;;;34.90;24.30;;;;;;;5.90;76.33;101163.59;183065;1238;59857;-90
2024/03/07 11:01:31;;;;;;;38.10;24.10;;;;;;;5.80;73.65;101161.41;183046;1238;45922;-89
2024/03/07 11:05:34;;;;;;;41.30;25.00;;;;;;;5.73;74.95;101164.59;183226;1239;46870;-89
2024/03/07 11:09:37;;;;;;;35.70;24.20;;;;;;;5.66;74.90;101159.77;182752;1238;44823;-90
2024/03/07 11:13:39;;;;;;;32.90;22.90;;;;;;;5.53;74.56;101155.48;182874;1240;46040;-91
2024/03/07 11:17:46;;;;;;;40.60;28.10;;;;;;;5.48;75.72;101155.33;182719;1237;57828;-90
2024/03/07 11:21:48;;;;;;;32.50;24.10;;;;;;;5.49;77.15;101154.24;182705;1237;46018;-91
2024/03/07 11:25:50;;;;;;;42.10;25.80;;;;;;;5.52;76.16;101152.31;182912;1238;46568;-89
2024/03/07 11:29:56;;;;;;;40.30;24.40;;;;;;;5.58;75.98;101157.17;182561;1240;212457;-90
2024/03/07 11:34:15;;;;;;;37.60;25.10;;;;;;;5.66;74.45;101156.44;183145;1238;46147;-91
2024/03/07 11:38:23;;;;;;;36.70;22.50;;;;;;;5.74;74.26;101151.66;183072;1237;58765;-88
2024/03/07 11:42:33;;;;;;;35.90;23.20;;;;;;;5.81;72.81;101146.73;183047;1236;46022;-89
2024/03/07 11:46:35;;;;;;;31.30;20.30;;;;;;;5.84;70.05;101146.98;182770;1238;45906;-87
2024/03/07 11:50:37;;;;;;;36.40;20.20;;;;;;;5.83;70.40;101146.13;182593;1239;47312;-87
2024/03/07 11:54:41;;;;;;;33.10;21.90;;;;;;;5.79;70.88;101140.51;183010;1238;46020;-88
2024/03/07 11:58:44;;;;;;;41.70;25.40;;;;;;;5.76;71.93;101141.52;183063;1237;59128;-86
2024/03/07 12:02:48;;;;;;;32.50;22.50;;;;;;;5.72;72.42;101134.70;182651;1238;44702;-89
2024/03/07 12:06:51;;;;;;;29.90;21.60;;;;;;;5.68;71.13;101134.69;182934;1236;46066;-85
2024/03/07 12:10:55;;;;;;;35.20;24.40;;;;;;;5.73;71.63;101136.94;182582;1238;46046;-89
2024/03/07 12:14:58;;;;;;;39.50;23.20;;;;;;;5.76;71.39;101135.55;182723;1239;46052;-88
2024/03/07 12:19:00;;;;;;;35.10;22.30;;;;;;;5.81;70.75;101127.73;182381;1238;58210;-89
2024/03/07 12:23:05;;;;;;;33.80;22.80;;;;;;;5.86;70.03;101126.42;182653;1240;46325;-89
2024/03/07 12:27:12;;;;;;;31.60;20.00;;;;;;;5.92;69.96;101127.63;182784;1237;45122;-89
2024/03/07 12:31:16;;;;;;;31.10;21.70;;;;;;;5.95;68.77;101126.91;182933;1237;46070;-87
2024/03/07 12:35:19;;;;;;;32.50;23.00;;;;;;;6.02;69.67;101125.34;182731;1237;46147;-87
2024/03/07 12:39:29;;;;;;;29.90;21.80;;;;;;;6.07;68.69;101125.11;182149;1237;59983;-90
2024/03/07 12:43:32;;;;;;;27.40;21.00;;;;;;;6.13;68.90;101123.40;182236;1240;45880;-88
2024/03/07 12:47:36;;;;;;;37.30;20.60;;;;;;;6.19;67.58;101126.65;182426;1238;44052;-89
2024/03/07 12:51:39;;;;;;;31.70;21.30;;;;;;;6.28;67.35;101127.80;182456;1239;46117;-89
2024/03/07 12:55:43;;;;;;;38.50;23.70;;;;;;;6.29;66.90;101128.27;182636;1239;46226;-88
2024/03/07 12:59:45;;;;;;;37.20;22.60;;;;;;;6.35;68.36;101130.59;182661;1237;59289;-90
2024/03/07 13:03:47;;;;;;;31.40;20.90;;;;;;;6.46;67.98;101126.89;183015;1237;46141;-89
2024/03/07 13:07:49;;;;;;;32.00;20.10;;;;;;;6.58;67.71;101122.39;183034;1240;45907;-89
2024/03/07 13:11:51;;;;;;;31.70;21.20;;;;;;;6.80;67.53;101119.15;182953;1236;45993;-88
2024/03/07 13:15:54;;;;;;;30.80;22.60;;;;;;;6.95;65.86;101115.55;182820;1241;46085;-89
2024/03/07 13:19:59;;;;;;;30.10;20.70;;;;;;;7.08;66.17;101119.98;182839;1236;59167;-87
2024/03/07 13:24:01;;;;;;;27.50;19.80;;;;;;;7.14;65.24;101116.30;182409;1240;46103;-88
2024/03/07 13:28:29;;;;;;;26.40;18.50;;;;;;;7.17;65.00;101115.61;182919;1237;46151;-89
2024/03/07 13:32:31;;;;;;;31.30;19.80;;;;;;;7.09;62.62;101114.95;182710;1238;46063;-89
2024/03/07 13:36:33;;;;;;;28.60;18.70;;;;;;;7.02;62.75;101116.59;183012;1236;43988;-89
2024/03/07 13:40:38;;;;;;;28.90;18.90;;;;;;;7.01;64.18;101115.03;182301;1237;58080;-88
2024/03/07 13:44:40;;;;;;;30.80;21.00;;;;;;;7.01;63.54;101113.98;182579;1238;45987;-88
2024/03/07 13:48:44;;;;;;;27.90;19.00;;;;;;;7.04;63.61;101107.86;182624;1239;44645;-89
2024/03/07 13:53:04;;;;;;;29.90;21.20;;;;;;;7.07;62.41;101107.48;182631;1240;46052;-89
2024/03/07 13:57:35;;;;;;;25.70;17.00;;;;;;;7.08;62.86;101106.73;182581;1240;46007;-90
2024/03/07 14:02:29;;;;;;;24.70;17.70;;;;;;;7.10;64.05;101108.41;182283;1241;57817;-85
2024/03/07 14:06:38;;;;;;;28.40;18.70;;;;;;;7.11;63.19;101102.52;181290;1244;46186;-85
2024/03/07 14:10:58;;;;;;;29.70;20.70;;;;;;;7.11;63.20;101102.52;181317;1243;46116;-81
2024/03/07 14:15:31;;;;;;;23.90;19.00;;;;;;;7.10;64.10;101105.77;182119;1245;46106;-82
2024/03/07 14:19:55;;;;;;;19.40;15.70;;;;;;;7.08;64.71;101104.80;181662;1244;46070;-83
2024/03/07 14:24:39;;;;;;;23.10;15.10;;;;;;;7.12;65.76;101102.80;181260;1247;59904;-82
2024/03/07 14:28:41;;;;;;;34.70;20.90;;;;;;;7.15;64.42;101095.75;181679;1244;46316;-81
2024/03/07 14:32:43;;;;;;;27.50;20.80;;;;;;;7.17;65.91;101095.49;181924;1245;45973;-82
2024/03/07 14:36:53;;;;;;;23.90;17.90;;;;;;;7.18;65.50;101095.81;182458;1240;44085;-81
2024/03/07 14:40:55;;;;;;;34.70;21.90;;;;;;;7.21;65.81;101097.56;182356;1236;45989;-81
2024/03/07 14:44:57;;;;;;;29.30;19.00;;;;;;;7.15;67.02;101089.08;182606;1238;59301;-82
2024/03/07 14:48:59;;;;;;;26.10;19.90;;;;;;;7.11;66.57;101084.91;183494;1236;44508;-82
2024/03/07 14:53:04;;;;;;;31.20;21.20;;;;;;;7.07;65.87;101081.56;184144;1237;44232;-82
2024/03/07 14:57:10;;;;;;;30.60;21.00;;;;;;;7.06;66.60;101076.16;182720;1236;46125;-82
2024/03/07 15:01:13;;;;;;;32.20;20.70;;;;;;;7.04;67.12;101075.73;182551;1238;45919;-81
2024/03/07 15:05:16;;;;;;;31.70;20.30;;;;;;;7.00;66.77;101075.77;182758;1236;57785;-82
2024/03/07 15:09:19;;;;;;;30.90;22.40;;;;;;;6.97;68.75;101072.75;183754;1240;46038;-82
2024/03/07 15:13:22;;;;;;;38.00;21.80;;;;;;;6.95;69.01;101070.20;182722;1237;46137;-82
2024/03/07 15:17:24;;;;;;;30.90;21.80;;;;;;;6.91;67.63;101068.65;184210;1236;45967;-82
2024/03/07 15:21:28;;;;;;;35.10;21.40;;;;;;;6.90;68.93;101065.93;183190;1237;46055;-82
2024/03/07 15:25:30;;;;;;;27.40;19.50;;;;;;;6.87;69.92;101062.88;182608;1236;57415;-82
2024/03/07 15:29:32;;;;;;;32.70;22.30;;;;;;;6.87;70.14;101061.99;183062;1236;44270;-82
2024/03/07 15:33:34;;;;;;;32.00;22.70;;;;;;;6.83;69.98;101057.95;183188;1236;45990;-82
2024/03/07 15:37:41;;;;;;;32.80;23.70;;;;;;;6.83;69.92;101057.83;182248;1236;45990;-83
2024/03/07 15:41:42;;;;;;;30.40;20.10;;;;;;;6.78;70.52;101056.53;182516;1240;45968;-82
2024/03/07 15:45:44;;;;;;;26.60;17.90;;;;;;;6.72;70.20;101058.56;182880;1236;59343;-82
2024/03/07 15:49:47;;;;;;;35.80;22.00;;;;;;;6.66;70.38;101054.84;183019;1239;46121;-83
2024/03/07 15:53:49;;;;;;;35.80;21.50;;;;;;;6.57;72.38;101057.73;184087;1236;46068;-83
2024/03/07 15:57:54;;;;;;;35.60;22.70;;;;;;;6.50;72.03;101057.05;183038;1236;46081;-83
2024/03/07 16:01:56;;;;;;;37.90;23.40;;;;;;;6.45;73.62;101060.32;184181;1236;44320;-83
2024/03/07 16:05:59;;;;;;;34.70;25.80;;;;;;;6.38;74.85;101058.90;182974;1239;57167;-85
2024/03/07 16:10:01;;;;;;;43.00;26.40;;;;;;;6.33;72.56;101063.73;182484;1241;46402;-88
2024/03/07 16:14:02;;;;;;;38.60;27.70;;;;;;;6.33;73.39;101058.13;183297;1237;46001;-86
2024/03/07 16:18:05;;;;;;;39.70;30.10;;;;;;;6.32;74.31;101059.07;182491;1239;46197;-87
2024/03/07 16:22:08;;;;;;;41.30;28.30;;;;;;;6.30;75.15;101062.67;182568;1238;46102;-90
2024/03/07 16:26:10;;;;;;;38.60;25.20;;;;;;;6.26;75.36;101061.29;183382;1236;59124;-87
2024/03/07 16:30:23;;;;;;;39.70;27.60;;;;;;;6.19;75.90;101058.48;183349;1240;46641;-87
2024/03/07 16:34:25;;;;;;;34.90;27.00;;;;;;;6.15;76.22;101055.17;183689;1237;45987;-87
2024/03/07 16:38:27;;;;;;;39.10;24.70;;;;;;;6.04;77.09;101054.29;182845;1240;45977;-86
2024/03/07 16:42:29;;;;;;;40.40;26.60;;;;;;;5.99;77.74;101051.70;182781;1236;45966;-89
2024/03/07 16:46:36;;;;;;;39.40;26.20;;;;;;;5.97;78.39;101055.70;182530;1237;57997;-88
2024/03/07 16:50:41;;;;;;;51.90;32.50;;;;;;;5.93;78.51;101057.13;182273;1240;46002;-89
2024/03/07 16:54:45;;;;;;;40.90;27.40;;;;;;;5.90;78.17;101056.56;182098;1239;44434;-89
2024/03/07 16:58:48;;;;;;;34.80;23.00;;;;;;;5.85;77.79;101057.30;182557;1239;46194;-90
2024/03/07 17:02:51;;;;;;;39.40;27.10;;;;;;;5.83;78.95;101057.91;183072;1236;45218;-89
2024/03/07 17:06:53;;;;;;;39.70;26.70;;;;;;;5.82;78.87;101062.56;182922;1240;57844;-89
2024/03/07 17:10:56;;;;;;;32.10;23.30;;;;;;;5.80;78.86;101064.44;182250;1240;46150;-89
2024/03/07 17:14:58;;;;;;;43.00;26.40;;;;;;;5.81;78.70;101067.23;182646;1238;46570;-88
2024/03/07 17:19:00;;;;;;;35.30;24.50;;;;;;;5.82;78.43;101067.30;182271;1236;45904;-88
2024/03/07 17:23:02;;;;;;;36.20;24.00;;;;;;;5.85;77.89;101066.84;182613;1236;46121;-86
2024/03/07 17:27:04;;;;;;;40.00;26.50;;;;;;;5.88;78.75;101067.39;182638;1236;57145;-89
2024/03/07 17:31:07;;;;;;;37.40;25.90;;;;;;;5.91;78.43;101070.92;182534;1240;46093;-88
2024/03/07 17:35:10;;;;;;;33.70;26.20;;;;;;;5.92;78.59;101065.22;182492;1241;46176;-89
2024/03/07 17:39:15;;;;;;;38.50;27.10;;;;;;;5.90;79.13;101066.06;182373;1236;46073;-88
2024/03/07 17:43:17;;;;;;;45.90;28.80;;;;;;;5.86;79.41;101065.53;182098;1236;46199;-89
2024/03/07 17:47:20;;;;;;;50.60;30.30;;;;;;;5.85;79.41;101063.65;182669;1236;57354;-89
2024/03/07 17:51:22;;;;;;;53.70;34.30;;;;;;;5.86;80.39;101066.05;182362;1236;45926;-88
2024/03/07 17:55:26;;;;;;;55.30;36.00;;;;;;;5.88;80.11;101067.56;182495;1239;44608;-89
2024/03/07 17:59:31;;;;;;;53.40;36.00;;;;;;;5.91;79.47;101067.41;182410;1237;46059;-86
2024/03/07 18:03:32;;;;;;;53.10;34.50;;;;;;;5.94;79.61;101071.64;182526;1240;46045;-88
2024/03/07 18:07:41;;;;;;;47.50;31.40;;;;;;;5.99;80.06;101070.03;182192;1239;59297;-88
2024/03/07 18:11:43;;;;;;;38.70;25.40;;;;;;;6.00;80.46;101070.16;182128;1237;45011;-89
2024/03/07 18:15:45;;;;;;;43.60;24.40;;;;;;;6.00;80.75;101069.61;182600;1237;46033;-87
2024/03/07 18:19:47;;;;;;;37.30;25.80;;;;;;;5.99;80.66;101070.71;182578;1237;44640;-89
2024/03/07 18:23:49;;;;;;;28.80;20.10;;;;;;;5.99;80.55;101076.34;182470;1241;46054;-88
2024/03/07 18:27:54;;;;;;;40.50;26.60;;;;;;;6.02;80.64;101078.85;183593;1240;58041;-88
2024/03/07 18:31:56;;;;;;;36.00;24.60;;;;;;;6.06;80.54;101080.77;184417;1238;45989;-87